Kezdőlap
METAR-TAF:

METAR-TAF

Repülőterek :

Teherán, Irán

földrajzi szélesség: 35-41N, földrajzi hosszúság: 051-21E, magasság: 1204 m

Jelenlegi meteorológiai megfigyelések

A jelentés 19 perccel ezelõtt készült, 04:00 UTC
Szélcsend
Hőmérséklet 6°C
Páratartalom 61%
Légköri nyomás 1019 hPa
Látótávolság 10 km, vagy több
Kevés felhő 4000 lábon
Szórványos felhőzet 9000 lábon

METAR: OIII 100400Z 00000KT 9999 FEW040 SCT090 06/M01 Q1018 A3008 NOSIG

Idő: 07:49 (04:19 UTC)

Előrejelzés

A jelentés 5 órával és 19 perccel ezelõtt készült, 23:00 UTC
Az előrejelzés 10-én 00 óra UTC és 11-én 06 óra UTC között érvényes
Nyugati szél 8 kt
Kevés felhő 4000 lábon
10-én 12 óra UTC és 10-én 18 óra UTC között ideiglenes
Északnyugati szél 16 kt
Látótávolság: 7000 m
Kevés felhő 3000 lábon
Kevés felhő 3500 lábon, Cumulonimbus.
Szórványos felhőzet 10000 lábon

TAF: OIII 092300Z 1000/1106 27004MPS FEW040 TEMPO 1012/1018 32008MPS 7000 FEW030 FEW035CB SCT100

Meteorológiai megfigyelések és előrejelzések több, mint 4000 repülőtéren (METAR és TAF jelentéseket).

A térképen piros és sárga pontok jelzik az elérhető meteorológiai állomásokat.

Mozgassa az egeret a pont fölött, hogy megjelenjen az állomás neve.

Azután kattintson az időjárási megfigyelések és előrejelzések megtekintéséhez.

A térkép megváltoztatása: kattintson a fekete keresztel jelölt zöld gombra ráközelítéshez, a vonallal jelölt zöld gombra távolításhoz, vagy a zöld nyilakra a szomszédos térképek eléréséhez.


METAR-TAF: